createdAt,value
2022-12-23T00:01:05.464Z,91.34
2022-12-23T00:04:07.247Z,91.84
2022-12-23T00:07:09.082Z,91.57
2022-12-23T00:10:11.100Z,92.29
2022-12-23T00:13:31.217Z,92.05
2022-12-23T00:16:36.092Z,92.01
2022-12-23T00:19:37.942Z,91.50
2022-12-23T00:22:58.567Z,91.15
2022-12-23T00:26:00.889Z,90.88
2022-12-23T00:29:02.738Z,91.16
2022-12-23T00:32:04.863Z,91.87
2022-12-23T00:35:06.832Z,91.73
2022-12-23T00:38:08.574Z,92.32
2022-12-23T00:41:37.208Z,92.44
2022-12-23T00:44:38.860Z,91.93
2022-12-23T00:47:59.183Z,92.49
2022-12-23T00:51:00.967Z,92.02
2022-12-23T00:54:03.211Z,92.04
2022-12-23T00:57:04.978Z,91.48
2022-12-23T01:00:07.375Z,91.19
2022-12-23T01:03:32.847Z,90.87
2022-12-23T01:06:34.860Z,91.26
2022-12-23T01:09:36.693Z,91.14
2022-12-23T01:12:38.382Z,91.27
2022-12-23T01:15:40.119Z,91.15
2022-12-23T01:18:41.924Z,91.67
2022-12-23T01:21:43.763Z,91.28
2022-12-23T01:24:45.692Z,91.25
2022-12-23T01:27:47.394Z,90.73
2022-12-23T01:30:49.165Z,90.88
2022-12-23T01:33:51.715Z,91.28
2022-12-23T01:36:53.476Z,91.24
2022-12-23T01:39:55.176Z,91.58
2022-12-23T01:42:56.792Z,92.49
2022-12-23T01:45:58.527Z,92.28
2022-12-23T01:49:00.262Z,92.20
2022-12-23T01:52:02.118Z,92.12
2022-12-23T01:55:04.141Z,92.40
2022-12-23T01:58:13.173Z,91.89
2022-12-23T02:01:33.724Z,92.26
2022-12-23T02:04:35.546Z,92.41
2022-12-23T02:07:55.751Z,92.78
2022-12-23T02:11:15.277Z,93.35
2022-12-23T02:14:54.333Z,93.61
2022-12-23T02:17:55.963Z,93.48
2022-12-23T02:21:22.419Z,93.01
2022-12-23T02:24:57.889Z,92.92
2022-12-23T02:28:35.707Z,91.87
2022-12-23T02:31:57.609Z,92.19
2022-12-23T02:35:45.185Z,91.94
2022-12-23T02:38:49.647Z,91.81
2022-12-23T02:42:02.296Z,91.40
2022-12-23T02:45:21.867Z,90.83
2022-12-23T02:48:23.631Z,91.13
2022-12-23T02:51:31.811Z,91.13
2022-12-23T02:54:39.885Z,91.45
2022-12-23T02:57:46.991Z,91.31
2022-12-23T03:00:50.643Z,90.44
2022-12-23T03:03:52.382Z,90.96
2022-12-23T03:06:55.860Z,91.29
2022-12-23T03:10:00.546Z,90.79
2022-12-23T03:13:43.796Z,90.12
2022-12-23T03:17:29.755Z,89.66
2022-12-23T03:20:59.152Z,89.92
2022-12-23T03:24:07.533Z,90.96
2022-12-23T03:27:24.906Z,91.65
2022-12-23T03:30:28.845Z,91.43
2022-12-23T03:33:44.723Z,91.83
2022-12-23T03:36:51.487Z,91.68
2022-12-23T03:40:00.372Z,91.77
2022-12-23T03:43:09.137Z,91.60
2022-12-23T03:46:30.111Z,92.00
2022-12-23T03:49:40.032Z,91.91
2022-12-23T03:53:05.125Z,92.06
2022-12-23T03:56:10.632Z,91.89
2022-12-23T03:59:17.471Z,91.40
2022-12-23T04:02:32.930Z,91.53
2022-12-23T04:05:41.010Z,91.57
2022-12-23T04:08:44.806Z,91.56
2022-12-23T04:11:46.565Z,92.07
2022-12-23T04:14:49.250Z,92.98
2022-12-23T04:17:52.489Z,92.79
2022-12-23T04:20:59.283Z,92.83
2022-12-23T04:24:00.940Z,93.09
2022-12-23T04:27:02.656Z,93.29
2022-12-23T04:30:06.231Z,92.87
2022-12-23T04:33:10.715Z,93.00
2022-12-23T04:36:12.357Z,93.26
2022-12-23T04:39:14.229Z,93.45
2022-12-23T04:42:15.890Z,93.03
2022-12-23T04:45:17.759Z,93.00
2022-12-23T04:48:19.672Z,93.22
2022-12-23T04:51:21.464Z,92.72
2022-12-23T04:54:23.128Z,93.02
2022-12-23T04:57:24.820Z,92.79
2022-12-23T05:00:38.973Z,92.49
2022-12-23T05:03:41.823Z,93.38
2022-12-23T05:06:43.497Z,93.39
2022-12-23T05:09:45.233Z,93.85
2022-12-23T05:12:46.920Z,94.35
2022-12-23T05:15:53.977Z,94.11
2022-12-23T05:18:55.677Z,94.59
2022-12-23T05:21:57.352Z,95.18
2022-12-23T05:24:59.021Z,94.60
2022-12-23T05:28:00.726Z,94.89
2022-12-23T05:31:08.198Z,95.03
2022-12-23T05:34:09.980Z,95.28
2022-12-23T05:37:11.702Z,95.14
2022-12-23T05:40:18.463Z,94.53
2022-12-23T05:43:23.421Z,95.01
2022-12-23T05:46:27.021Z,95.28
2022-12-23T05:49:29.124Z,94.87
2022-12-23T05:52:30.886Z,95.07
2022-12-23T05:55:32.628Z,95.11
2022-12-23T05:58:34.390Z,95.69
2022-12-23T06:01:36.293Z,95.36
2022-12-23T06:04:38.053Z,95.78
2022-12-23T06:07:40.670Z,95.52
2022-12-23T06:10:46.921Z,95.59
2022-12-23T06:13:48.647Z,95.35
2022-12-23T06:16:51.592Z,95.88
2022-12-23T06:19:53.395Z,95.88
2022-12-23T06:22:55.106Z,95.91
2022-12-23T06:26:03.091Z,95.41
2022-12-23T06:29:04.829Z,95.58
2022-12-23T06:32:06.750Z,95.68
2022-12-23T06:35:09.117Z,95.86
2022-12-23T06:38:12.413Z,95.69
2022-12-23T06:41:14.742Z,95.23
2022-12-23T06:44:16.616Z,94.82
2022-12-23T06:47:18.357Z,94.61
2022-12-23T06:50:20.608Z,95.30
2022-12-23T06:53:22.931Z,94.80
2022-12-23T06:56:24.657Z,94.32
2022-12-23T06:59:27.030Z,94.64
2022-12-23T07:02:28.967Z,94.89
2022-12-23T07:05:36.923Z,94.62
2022-12-23T07:08:39.583Z,94.29
2022-12-23T07:11:41.296Z,94.90
2022-12-23T07:14:43.086Z,94.98
2022-12-23T07:17:44.712Z,94.68
2022-12-23T07:20:46.510Z,94.98
2022-12-23T07:23:48.349Z,95.07
2022-12-23T07:26:51.893Z,95.75
2022-12-23T07:29:53.565Z,95.56
2022-12-23T07:32:55.374Z,95.50
2022-12-23T07:35:59.877Z,95.47
2022-12-23T07:39:01.621Z,95.80
2022-12-23T07:42:33.499Z,95.45
2022-12-23T07:45:26.220Z,95.32
2022-12-23T07:48:27.988Z,94.40
2022-12-23T07:51:30.210Z,94.37
2022-12-23T07:54:31.867Z,94.58
2022-12-23T07:57:38.219Z,94.72
2022-12-23T08:00:44.620Z,93.86
2022-12-23T08:03:47.409Z,94.45
2022-12-23T08:06:49.107Z,94.49
2022-12-23T08:09:50.939Z,94.11
2022-12-23T08:12:52.729Z,95.09
2022-12-23T08:15:56.278Z,94.70
2022-12-23T08:18:57.947Z,94.89
2022-12-23T08:21:59.694Z,94.93
2022-12-23T08:25:02.031Z,94.91
2022-12-23T08:28:03.977Z,95.35
2022-12-23T08:31:19.336Z,95.12
2022-12-23T08:34:21.077Z,95.25
2022-12-23T08:37:22.781Z,94.86
2022-12-23T08:40:27.585Z,94.46
2022-12-23T08:43:35.577Z,94.57
2022-12-23T08:46:38.311Z,94.48
2022-12-23T08:49:40.068Z,95.13
2022-12-23T08:52:41.759Z,95.37
2022-12-23T08:55:45.812Z,94.92
2022-12-23T08:58:50.568Z,95.23
2022-12-23T09:01:52.408Z,94.41
2022-12-23T09:04:54.416Z,94.31
2022-12-23T09:07:56.329Z,93.96
2022-12-23T09:10:58.039Z,94.03
2022-12-23T09:14:01.332Z,93.41
2022-12-23T09:17:03.022Z,93.59
2022-12-23T09:20:05.437Z,92.09
2022-12-23T09:23:07.523Z,92.75
2022-12-23T09:26:22.236Z,91.97
2022-12-23T09:29:25.616Z,93.48
2022-12-23T09:32:27.601Z,93.29
2022-12-23T09:35:29.392Z,92.17
2022-12-23T09:38:32.278Z,91.74
2022-12-23T09:41:51.999Z,91.50
2022-12-23T09:45:11.962Z,92.08
2022-12-23T09:48:28.460Z,92.49
2022-12-23T09:51:30.980Z,92.87
2022-12-23T09:54:45.914Z,92.73
2022-12-23T09:57:56.208Z,92.99
2022-12-23T10:01:13.711Z,93.32
2022-12-23T10:04:33.796Z,93.12
2022-12-23T10:07:55.455Z,93.12
2022-12-23T10:11:06.630Z,93.27
2022-12-23T10:14:20.379Z,93.08
2022-12-23T10:17:51.193Z,93.54
2022-12-23T10:21:04.337Z,93.62
2022-12-23T10:24:16.715Z,93.08
2022-12-23T10:27:29.223Z,93.05
2022-12-23T10:31:23.306Z,92.50
2022-12-23T10:34:11.912Z,91.86
2022-12-23T10:37:25.725Z,91.40
2022-12-23T10:40:42.994Z,91.81
2022-12-23T10:44:02.600Z,92.23
2022-12-23T10:47:19.974Z,91.75
2022-12-23T10:50:46.237Z,91.73
2022-12-23T10:53:56.636Z,91.02
2022-12-23T10:56:58.832Z,91.20
2022-12-23T11:00:00.837Z,91.33
2022-12-23T11:03:18.762Z,91.62
2022-12-23T11:06:21.326Z,92.18
2022-12-23T11:09:28.061Z,92.32
2022-12-23T11:13:02.304Z,92.34
2022-12-23T11:16:15.833Z,91.68
2022-12-23T11:19:17.571Z,91.83
2022-12-23T11:22:25.419Z,91.74
2022-12-23T11:25:41.329Z,91.82
2022-12-23T11:28:59.110Z,91.26
2022-12-23T11:32:04.971Z,91.74
2022-12-23T11:35:31.845Z,91.14
2022-12-23T11:38:46.970Z,91.35
2022-12-23T11:41:52.543Z,91.60
2022-12-23T11:44:56.435Z,92.02
2022-12-23T11:47:58.132Z,92.05
2022-12-23T11:51:01.998Z,89.93
2022-12-23T11:54:03.941Z,90.40
2022-12-23T11:57:16.937Z,89.33
2022-12-23T12:00:26.356Z,89.79
2022-12-23T12:03:32.114Z,87.45
2022-12-23T12:06:34.304Z,85.95
2022-12-23T12:09:40.485Z,86.40
2022-12-23T12:12:43.109Z,84.93
2022-12-23T12:16:09.118Z,85.52
2022-12-23T12:19:25.085Z,84.92
2022-12-23T12:22:39.693Z,85.71
2022-12-23T12:25:47.614Z,86.60
2022-12-23T12:29:21.641Z,86.03
2022-12-23T12:32:41.529Z,87.79
2022-12-23T12:36:18.667Z,84.25
2022-12-23T12:39:33.956Z,78.85
2022-12-23T12:42:44.325Z,72.27
2022-12-23T12:45:53.129Z,71.89
2022-12-23T12:49:04.136Z,73.93
2022-12-23T12:52:16.236Z,78.57
2022-12-23T12:55:29.630Z,78.69
2022-12-23T12:58:31.370Z,78.56
2022-12-23T13:01:42.696Z,80.63
2022-12-23T13:05:12.756Z,81.32
2022-12-23T13:09:10.854Z,77.39
2022-12-23T13:12:44.169Z,74.93
2022-12-23T13:15:58.149Z,71.10
2022-12-23T13:19:15.634Z,66.64
2022-12-23T13:22:24.910Z,70.78
2022-12-23T13:25:41.308Z,75.63
2022-12-23T13:28:52.352Z,78.54
2022-12-23T13:32:20.981Z,81.41
2022-12-23T13:35:40.361Z,83.30
2022-12-23T13:39:01.485Z,84.73
2022-12-23T13:42:06.302Z,85.75
2022-12-23T13:45:15.353Z,88.20
2022-12-23T13:48:38.849Z,89.24
2022-12-23T13:51:56.155Z,91.02
2022-12-23T13:55:07.607Z,90.17
2022-12-23T13:58:20.229Z,90.74
2022-12-23T14:01:40.303Z,90.60
2022-12-23T14:05:03.581Z,90.69
2022-12-23T14:08:19.914Z,91.12
2022-12-23T14:11:25.520Z,91.56
2022-12-23T14:14:28.265Z,92.19
2022-12-23T14:18:04.879Z,91.98
2022-12-23T14:21:36.561Z,92.18
2022-12-23T14:24:59.828Z,91.94
2022-12-23T14:28:22.746Z,92.53
2022-12-23T14:31:33.882Z,92.22
2022-12-23T14:34:36.199Z,92.82
2022-12-23T14:37:37.925Z,93.14
2022-12-23T14:40:43.150Z,93.38
2022-12-23T14:43:44.755Z,93.31
2022-12-23T14:46:46.428Z,93.68
2022-12-23T14:49:48.593Z,93.07
2022-12-23T14:53:00.273Z,93.39
2022-12-23T14:56:21.649Z,93.55
2022-12-23T14:59:52.069Z,93.75
2022-12-23T15:02:58.333Z,93.55
2022-12-23T15:06:05.109Z,93.93
2022-12-23T15:09:09.476Z,94.52
2022-12-23T15:12:19.823Z,94.29
2022-12-23T15:15:30.079Z,94.43
2022-12-23T15:18:31.806Z,94.34
2022-12-23T15:21:36.150Z,94.91
2022-12-23T15:24:41.803Z,95.19
2022-12-23T15:27:43.628Z,95.48
2022-12-23T15:30:51.107Z,95.98
2022-12-23T15:34:04.037Z,95.89
2022-12-23T15:37:11.646Z,95.71
2022-12-23T15:40:27.011Z,95.73
2022-12-23T15:43:29.234Z,95.92
2022-12-23T15:46:31.877Z,96.15
2022-12-23T15:49:33.599Z,95.88
2022-12-23T15:52:35.301Z,95.86
2022-12-23T15:55:41.258Z,95.68
2022-12-23T15:58:43.766Z,96.11
2022-12-23T16:01:45.563Z,96.10
2022-12-23T16:04:56.239Z,96.23
2022-12-23T16:08:24.643Z,96.15
2022-12-23T16:11:40.625Z,96.38
2022-12-23T16:14:49.696Z,96.15
2022-12-23T16:17:51.449Z,95.97
2022-12-23T16:21:04.064Z,95.92
2022-12-23T16:24:09.675Z,95.59
2022-12-23T16:27:15.512Z,94.91
2022-12-23T16:30:22.465Z,95.51
2022-12-23T16:33:43.316Z,95.08
2022-12-23T16:36:45.075Z,95.24
2022-12-23T16:39:47.173Z,95.17
2022-12-23T16:42:48.949Z,94.87
2022-12-23T16:45:54.240Z,94.44
2022-12-23T16:48:59.310Z,94.64
2022-12-23T16:52:02.194Z,94.26
2022-12-23T16:55:12.383Z,94.88
2022-12-23T16:58:14.168Z,94.43
2022-12-23T17:01:20.932Z,94.26
2022-12-23T17:04:22.896Z,93.68
2022-12-23T17:07:26.399Z,94.47
2022-12-23T17:10:29.367Z,94.54
2022-12-23T17:13:31.167Z,94.69
2022-12-23T17:16:33.264Z,95.09
2022-12-23T17:19:35.002Z,95.37
2022-12-23T17:22:37.628Z,95.26
2022-12-23T17:25:39.299Z,94.98
2022-12-23T17:28:41.202Z,95.24
2022-12-23T17:31:44.710Z,94.76
2022-12-23T17:34:46.633Z,94.76
2022-12-23T17:37:48.545Z,94.97
2022-12-23T17:40:51.923Z,95.27
2022-12-23T17:43:53.683Z,95.19
2022-12-23T17:46:55.377Z,95.41
2022-12-23T17:49:57.119Z,95.09
2022-12-23T17:52:58.809Z,94.85
2022-12-23T17:56:00.447Z,95.37
2022-12-23T17:59:02.093Z,95.23
2022-12-23T18:02:30.701Z,95.16
2022-12-23T18:05:34.787Z,95.22
2022-12-23T18:08:36.488Z,95.59
2022-12-23T18:11:44.809Z,95.27
2022-12-23T18:14:46.737Z,95.60
2022-12-23T18:17:50.003Z,95.66
2022-12-23T18:20:57.364Z,95.86
2022-12-23T18:23:59.792Z,95.72
2022-12-23T18:27:01.858Z,95.61
2022-12-23T18:30:04.052Z,95.60
2022-12-23T18:33:08.705Z,95.38
2022-12-23T18:36:31.277Z,95.55
2022-12-23T18:39:33.061Z,95.59
2022-12-23T18:42:34.821Z,95.55
2022-12-23T18:45:39.033Z,95.56
2022-12-23T18:48:40.762Z,95.53
2022-12-23T18:51:42.428Z,95.12
2022-12-23T18:54:44.129Z,94.97
2022-12-23T18:57:47.149Z,95.04
2022-12-23T19:00:50.945Z,94.83
2022-12-23T19:03:52.613Z,94.75
2022-12-23T19:06:55.926Z,95.54
2022-12-23T19:09:57.652Z,95.65
2022-12-23T19:13:00.590Z,95.38
2022-12-23T19:16:02.462Z,95.20
2022-12-23T19:19:04.328Z,95.51
2022-12-23T19:22:06.102Z,94.13
2022-12-23T19:25:09.451Z,94.38
2022-12-23T19:28:12.076Z,94.18
2022-12-23T19:31:15.449Z,94.66
2022-12-23T19:34:17.393Z,94.04
2022-12-23T19:37:19.100Z,94.34
2022-12-23T19:40:22.316Z,94.09
2022-12-23T19:43:24.077Z,94.04
2022-12-23T19:46:25.964Z,93.83
2022-12-23T19:49:27.776Z,93.63
2022-12-23T19:52:29.576Z,91.95
2022-12-23T19:55:31.369Z,91.92
2022-12-23T19:58:37.578Z,92.90
2022-12-23T20:01:39.372Z,93.33
2022-12-23T20:04:41.829Z,93.16
2022-12-23T20:07:43.590Z,92.54
2022-12-23T20:10:46.452Z,92.97
2022-12-23T20:13:55.544Z,91.94
2022-12-23T20:16:57.233Z,91.14
2022-12-23T20:19:58.964Z,93.06
2022-12-23T20:23:00.870Z,92.86
2022-12-23T20:26:03.676Z,93.42
2022-12-23T20:29:05.730Z,93.63
2022-12-23T20:32:07.640Z,94.14
2022-12-23T20:35:09.612Z,93.92
2022-12-23T20:38:11.305Z,94.27
2022-12-23T20:41:19.607Z,94.89
2022-12-23T20:44:38.520Z,94.76
2022-12-23T20:47:40.161Z,94.72
2022-12-23T20:50:50.178Z,94.59
2022-12-23T20:53:54.588Z,93.92
2022-12-23T20:56:56.245Z,93.56
2022-12-23T20:59:57.957Z,93.36
2022-12-23T21:03:01.614Z,93.41
2022-12-23T21:06:08.348Z,92.86
2022-12-23T21:09:13.101Z,92.85
2022-12-23T21:12:14.842Z,92.75
2022-12-23T21:15:16.914Z,93.32
2022-12-23T21:18:18.764Z,93.31
2022-12-23T21:21:23.616Z,92.91
2022-12-23T21:24:25.701Z,93.25
2022-12-23T21:27:27.419Z,93.66
2022-12-23T21:30:29.379Z,93.64
2022-12-23T21:33:31.200Z,93.43
2022-12-23T21:36:36.950Z,92.45
2022-12-23T21:39:38.693Z,92.09
2022-12-23T21:42:40.419Z,91.35
2022-12-23T21:45:42.077Z,92.49
2022-12-23T21:48:44.496Z,93.27
2022-12-23T21:51:46.274Z,94.12
2022-12-23T21:54:47.975Z,94.09
2022-12-23T21:57:49.646Z,93.92
2022-12-23T22:00:51.449Z,93.22
2022-12-23T22:03:54.103Z,93.46
2022-12-23T22:06:55.799Z,92.97
2022-12-23T22:09:57.609Z,93.06
2022-12-23T22:12:59.284Z,92.99
2022-12-23T22:16:01.008Z,92.09
2022-12-23T22:19:04.415Z,92.83
2022-12-23T22:22:06.374Z,93.00
2022-12-23T22:25:08.383Z,92.71
2022-12-23T22:28:10.456Z,92.58
2022-12-23T22:31:17.690Z,92.82
2022-12-23T22:34:21.881Z,93.25
2022-12-23T22:37:23.573Z,93.79
2022-12-23T22:40:25.270Z,93.58
2022-12-23T22:43:27.141Z,93.70
2022-12-23T22:46:29.065Z,93.85
2022-12-23T22:49:30.930Z,93.76
2022-12-23T22:52:32.825Z,93.92
2022-12-23T22:55:34.626Z,93.57
2022-12-23T22:58:36.344Z,93.79
2022-12-23T23:01:38.657Z,93.59
2022-12-23T23:04:40.595Z,93.35
2022-12-23T23:07:42.247Z,93.55
2022-12-23T23:10:44.239Z,92.92
2022-12-23T23:13:46.032Z,92.87
2022-12-23T23:16:47.847Z,91.87
2022-12-23T23:19:49.838Z,92.51
2022-12-23T23:22:52.004Z,92.12
2022-12-23T23:25:53.736Z,91.61
2022-12-23T23:28:56.174Z,91.99
2022-12-23T23:31:59.039Z,92.12
2022-12-23T23:35:08.777Z,92.68
2022-12-23T23:38:12.291Z,92.89
2022-12-23T23:41:17.386Z,92.48
2022-12-23T23:44:23.986Z,92.44
2022-12-23T23:47:25.823Z,92.31
2022-12-23T23:50:27.686Z,92.61
2022-12-23T23:53:29.369Z,92.37
2022-12-23T23:56:37.889Z,91.71
2022-12-23T23:59:40.729Z,91.68
